ADDS METAR Data INFO
IDs: Format: Raw Decoded Include TAF

Data at: 0807 UTC 23 Jul 2018

KLEB 230753Z AUTO 00000KT 10SM +RA FEW001 BKN022 OVC065 22/21 A3014 RMK AO2 SLP197 P0047 T02220206
KLEB 230746Z AUTO 00000KT 10SM +RA FEW007 BKN028 OVC065 22/21 A3014 RMK AO2 P0040 T02220206
KLEB 230728Z AUTO 00000KT 10SM RA FEW015 BKN039 OVC070 22/20 A3014 RMK AO2 P0026 T02220200
KLEB 230653Z AUTO VRB05KT 10SM +RA FEW008 BKN023 OVC029 22/20 A3014 RMK AO2 RAB0555 SLP195 P0030 T02220200
KLEB 230635Z AUTO 00000KT 10SM -RA BKN027 OVC033 22/20 A3013 RMK AO2 RAB0555 P0003 T02220200
KLEB 230553Z AUTO 04005KT 10SM FEW032 BKN040 OVC070 22/19 A3013 RMK AO2 SLP192 60009 T02220194 10222 20217 58006
KLEB 230525Z AUTO 05005KT 10SM SCT011 BKN034 OVC065 22/19 A3013 RMK AO2 T02170194
KLEB 230453Z AUTO 04004KT 10SM BKN010 BKN024 OVC048 22/19 A3014 RMK AO2 RAE0358B18E44 SLP195 P0002 T02170194 402670139
KLEB 230353Z AUTO 05006KT 10SM -RA SCT012 BKN033 OVC065 22/19 A3015 RMK AO2 RAB00E21B39 SLP200 P0006 T02170194
KLEB 230351Z AUTO 06005KT 10SM -RA SCT012 BKN033 OVC065 22/19 A3015 RMK AO2 RAB00E21B39 P0006
KLEB 230343Z AUTO 06005KT 10SM -RA SCT012 BKN019 OVC038 22/19 A3015 RMK AO2 RAB00E21B39 P0004 T02170194
KLEB 230322Z AUTO 05005KT 10SM FEW014 BKN038 OVC050 22/19 A3015 RMK AO2 RAB00E21 P0001 T02170189
KLEB 230311Z AUTO 06004KT 10SM -RA SCT014 BKN029 OVC048 22/19 A3015 RMK AO2 RAB00 P0001 T02170189
KLEB 230303Z AUTO 05005KT 10SM -RA BKN014 BKN021 OVC038 22/19 A3015 RMK AO2 RAB00 P0000 T02170189
KLEB 230253Z AUTO 06004KT 10SM BKN015 BKN031 OVC038 22/19 A3015 RMK AO2 RAB0154E19 SLP202 P0001 60001 T02170189 51012
KLEB 230224Z AUTO 06004KT 10SM BKN015 BKN023 OVC034 22/19 A3015 RMK AO2 RAB0154E19 P0001 T02170189
KLEB 230211Z AUTO 06003KT 10SM -RA BKN014 BKN020 OVC035 22/19 A3015 RMK AO2 RAB0154 P0000 T02170189
KLEB 230153Z 03003KT 10SM BKN016 BKN036 OVC050 22/19 A3015 RMK AO2 SLP202 T02220189
KLEB 230053Z 05005KT 10SM OVC016 22/18 A3013 RMK AO2 SLP195 T02170183
KLEB 230039Z 05005KT 10SM OVC016 22/18 A3012 RMK AO2 T02220183
KLEB 230020Z 05005KT 10SM OVC014 22/18 A3012 RMK AO2 T02220183
KLEB 222353Z 02004KT 10SM OVC015 23/18 A3012 RMK AO2 SLP189 T02280183 10267 20228 53016
KLEB 222336Z 02003KT 10SM OVC015 23/18 A3011 RMK AO2 T02280183
KLEB 222305Z VRB03KT 10SM BKN013 OVC040 23/18 A3010 RMK AO2 T02330183
KLEB 222253Z 17009KT 10SM FEW015 OVC040 23/18 A3010 RMK AO2 SLP185 T02330183
KLEB 222153Z VRB04KT 10SM SCT039 BKN047 24/18 A3008 RMK AO2 SLP177 T02440183
KLEB 222053Z VRB06KT 10SM FEW038 26/19 A3007 RMK AO2 SLP173 T02560189 51002
KLEB 222008Z VRB04KT 10SM SCT022 SCT034 BKN044 25/18 A3007 RMK AO2 T02500183
KLEB 221953Z VRB05KT 10SM BKN022 OVC044 24/18 A3007 RMK AO2 SLP172 T02440178
KLEB 221943Z 13008KT 10SM BKN022 24/18 A3006 RMK AO2 T02440178
KLEB 221856Z 14006KT 10SM BKN039 26/18 A3007 RMK AO2 T02610183
KLEB 221853Z 10SM BKN039 26/18 A3007 RMK AO2 SLP173 T02560183
KLEB 221753Z 14009G15KT 10SM FEW019 OVC039 24/18 A3006 RMK AO2 SLP172 60004 T02390178 10244 20183 56003
KLEB 221714Z 15009G18KT 110V180 10SM SCT016 OVC035 23/17 A3007 RMK AO2 T02330172
KLEB 221653Z VRB03KT 10SM BKN015 OVC037 23/17 A3006 RMK AO2 SLP173 T02330172
KLEB 221628Z 07003KT 10SM BKN016 BKN050 23/18 A3007 RMK AO2 T02330178
KLEB 221605Z 07003KT 10SM FEW012 BKN060 BKN075 22/17 A3007 RMK AO2 T02220172
KLEB 221603Z 10SM SCT012 BKN060 BKN075 22/17 A3007 RMK AO2 T02170172
KLEB 221553Z VRB06KT 10SM BKN012 BKN060 OVC075 22/17 A3007 RMK AO2 SLP174 T02170167
KLEB 221521Z 00000KT 10SM BKN013 BKN021 OVC060 21/17 A3007 RMK AO2 T02060167
KLEB 221453Z VRB03KT 10SM BKN015 BKN070 OVC095 19/16 A3007 RMK AO2 RAE53 SLP176 P0004 60004 T01940161 55003
KLEB 221353Z 07008KT 10SM -RA BKN017 BKN090 OVC110 18/14 A3006 RMK AO2 RAB25 SLP173 P0000 T01830144
KLEB 221309Z 07008G15KT 10SM SCT019 BKN060 OVC100 19/13 A3007 RMK AO2 T01940128
KLEB 221253Z 09007G16KT 10SM BKN020 BKN042 OVC055 19/12 A3008 RMK AO2 SLP177 T01890122
KLEB 221224Z VRB04KT 10SM BKN026 BKN038 OVC100 19/12 A3008 RMK AO2 T01940122
KLEB 221153Z VRB04KT 10SM FEW026 BKN085 OVC110 19/12 A3008 RMK AO2 SLP177 T01890122 10189 20144 57001
KLEB 221053Z 04007KT 10SM BKN046 OVC060 18/12 A3008 RMK AO2 SLP177 T01780122
KLEB 220953Z 06006KT 10SM OVC055 18/12 A3008 RMK AO2 SLP177 T01780117
KLEB 220853Z AUTO 07006KT 10SM OVC060 17/13 A3008 RMK AO2 SLP177 T01720128 58007
KLEB 220753Z AUTO 02004KT 10SM SCT018 OVC070 18/12 A3010 RMK AO2 SLP182 T01780122
KLEB 220653Z AUTO 00000KT 10SM SCT065 15/12 A3010 RMK AO2 SLP182 T01500122
KLEB 220553Z AUTO 00000KT 10SM CLR 14/12 A3010 RMK AO2 SLP185 T01440117 10228 20139 56008
KLEB 220453Z AUTO 05005KT 10SM CLR 14/11 A3011 RMK AO2 SLP187 T01440111 402780128
KLEB 220353Z AUTO 00000KT 10SM CLR 17/12 A3012 RMK AO2 SLP191 T01670122
KLEB 220253Z AUTO 15004KT 10SM CLR 18/12 A3013 RMK AO2 SLP194 T01830117 50010
KLEB 220153Z 00000KT 10SM CLR 18/12 A3013 RMK AO2 SLP196 T01830117
KLEB 220053Z 16003KT 10SM CLR 21/12 A3012 RMK AO2 SLP191 T02060122
KLEB 212353Z 13004KT 10SM CLR 23/12 A3010 RMK AO2 SLP184 T02280122 10278 20228 53007
KLEB 212253Z 11005KT 10SM CLR 24/12 A3009 RMK AO2 SLP180 T02440122
KLEB 212153Z 12006KT 10SM CLR 26/12 A3008 RMK AO2 SLP177 T02610122
KLEB 212053Z 13008KT 100V170 10SM CLR 27/13 A3008 RMK AO2 SLP176 T02720128 58013